Skip to Main Content
SEARCH:
Location Air RH Dwp Precip Type Wind Speed Wind Gust Direction Pavement Temperature Date/Time
Hatem Bridge US 40 E/B 26 38 4 None 8 mph 13 mph NW 29 - 29 1/18/2018 10:55:00 AM
I-270 at I-370 28 41 8 None 5 mph 11 mph NW 28 - 37 1/18/2018 10:55:00 AM
I-270 at MD-109 29 39 8 None 11 mph 21 mph W 33 - 39 1/18/2018 10:55:00 AM
I-495 at American Legion Bridge 30 37 8 None 7 mph 21 mph NW 39 - 40 1/18/2018 10:50:00 AM
I-68 at Savage Mt 19 60 8 None 6 mph 24 mph SW 28 - 28 1/18/2018 10:55:00 AM
I-68 at Sideling Hill 28 45 10 None 4 mph 9 mph SE 35 - 35 1/18/2018 10:50:00 AM
I-68 at US 219 12 94 11 None 20 mph 33 mph W 19 - 25 1/18/2018 10:55:00 AM
I-68 at WV Line 16 68 7 None 12 mph 29 mph SW 23 - 24 1/18/2018 10:55:00 AM
I-695 at I-83 29 40 8 None 4 mph 14 mph W 32 - 37 1/18/2018 10:55:00 AM
I-695 on FSK Bridge 28 42 8 Snow 12 mph 19 mph NE - 1/18/2018 10:57:00 AM
I-70 at Fred-Wash Co. 25 52 10 None 8 mph 23 mph NW 26 - 36 1/18/2018 10:55:00 AM
I-70 at I-695 29 42 9 None 7 mph 20 mph W 25 - 38 1/18/2018 10:55:00 AM
I-70 at I-81 29 41 9 None 6 mph 13 mph W - 1/18/2018 10:55:00 AM
I-70 at MD-27 29 48 12 None 7 mph 16 mph W 32 - 36 1/18/2018 10:50:00 AM
I-70 at MD-32 28 42 7 None 7 mph 17 mph W 33 - 39 1/18/2018 10:55:00 AM
I-83 at MD-137 26 44 8 None 6 mph 14 mph SW 38 - 38 1/18/2018 10:50:00 AM
I-95 at I-695 NE 29 39 8 None Calm 5 mph NW 32 - 40 1/18/2018 10:55:00 AM
I-95 at Patuxent River 30 38 8 None Calm 13 mph N 35 - 38 1/18/2018 10:55:00 AM
I-95 at Tydings Bridge 29 49 12 None Calm 8 mph SW - 1/18/2018 10:55:00 AM
I-95/495 at I-295 34 37 10 None 5 mph 18 mph NW 32 - 36 1/18/2018 10:50:00 AM
I-97 at MD-100 32 36 8 None 4 mph 13 mph W 34 - 38 1/18/2018 10:55:00 AM
I-97 at MD-32 29 40 8 None 8 mph 17 mph NW 34 - 39 1/18/2018 10:55:00 AM
MD 20 at MD 21 26 48 9 None 8 mph 17 mph W 41 - 41 1/18/2018 10:55:00 AM
MD 231 at Patuxent River 31 36 8 None 7 mph 12 mph NW 39 - 42 1/18/2018 10:55:00 AM
MD 260 at Cox Rd 30 39 8 None Calm 10 mph N 43 - 43 1/18/2018 10:55:00 AM
MD-135 at Salt Dome 14 91 12 None 9 mph 30 mph NW 20 - 20 1/18/2018 10:55:00 AM
MD-140 at MD-97 26 46 8 None 9 mph 16 mph W 33 - 33 1/18/2018 10:55:00 AM
MD-200 EB at Bonifant Rd 27 43 7 None 4 mph 8 mph NW 27 - 33 1/18/2018 10:55:00 AM
MD-200 WB at Muncaster Mill Rd 29 40 7 None 6 mph 18 mph W 29 - 34 1/18/2018 10:55:00 AM
MD-213 at Sassafras River 25 59 13 None 8 mph 11 mph W 35 - 35 1/18/2018 10:50:00 AM
MD-24 at Rock St Park 29 52 13 None Calm 5 mph NE 28 - 28 1/18/2018 10:50:00 AM
MD-30 at PA Line 23 49 7 None 10 mph 15 mph SW 26 - 26 1/18/2018 10:50:00 AM
MD-33 at Knapps Narrows Drawbridge 28 51 12 None 11 mph 19 mph NW 46 - 46 1/18/2018 10:55:00 AM
MD-344 at MD-224 28 42 8 None 4 mph 9 mph W 39 - 39 1/18/2018 10:55:00 AM
MD-4 at Patuxent River 31 45 13 None - - No Data Available 32 - 39 1/18/2018 10:50:00 AM
MD-404 at Choptank River 26 49 10 None 8 mph 14 mph NW 37 - 40 1/18/2018 10:55:00 AM
MD-43 at MD-150 29 41 9 None 8 mph 14 mph W 33 - 38 1/18/2018 10:50:00 AM
MD-51 at Oldtown Salt Dome 26 45 8 None 13 mph 22 mph W 36 - 36 1/18/2018 10:55:00 AM
MD-64 at MD-418 24 53 10 None 12 mph 19 mph SW 31 - 35 1/18/2018 10:55:00 AM
US 301 at MD 305 24 51 9 None 12 mph 16 mph NW 37 - 39 1/18/2018 10:55:00 AM
US-1 at Baltimore / Harford Co. Line 29 43 10 None 4 mph 13 mph NW 33 - 33 1/18/2018 10:55:00 AM
US-1 at Conowingo Dam 31 49 14 None Calm 7 mph W 41 - 41 1/18/2018 10:55:00 AM
US-13 at US-113 28 48 11 None 11 mph 19 mph NW 42 - 44 1/18/2018 10:55:00 AM
US-13 at US-50 29 43 9 None 11 mph 22 mph NW - 1/18/2018 10:55:00 AM
US-15 at MD-140 30 36 6 None 5 mph 21 mph W 29 - 38 1/18/2018 10:50:00 AM
US-301 at MD-5 33 38 10 None Calm 14 mph W 36 - 41 1/18/2018 10:55:00 AM
US-301 at Potomac 31 50 15 None 12 mph 18 mph NW 37 - 39 1/18/2018 10:55:00 AM
US-301 on HWN Bridge - - - None - - No Data Available - 1/18/2018 10:56:00 AM
US-340 at MD-180 29 40 8 None 11 mph 16 mph W 38 - 38 1/18/2018 10:55:00 AM
US-50 at Choptank 26 58 13 None 13 mph 17 mph W 35 - 39 1/18/2018 10:55:00 AM
US-50 at I-95 30 40 8 None 11 mph 23 mph W 28 - 36 1/18/2018 10:55:00 AM
US-50 at MD-2 29 40 8 None 7 mph 15 mph W 27 - 35 1/18/2018 10:50:00 AM
US-50 at MD-331 29 44 10 None 8 mph 15 mph NW 37 - 45 1/18/2018 10:55:00 AM
US-50 at OC Drawbridge 27 47 10 None 15 mph 20 mph NW 44 - 44 1/18/2018 10:55:00 AM
US-50 at Table Rock Rd 12 95 11 None 6 mph 17 mph NW 28 - 28 1/18/2018 10:50:00 AM
US-50 Kent Narrow Bridge 29 50 13 None 5 mph 10 mph NW 34 - 38 1/18/2018 10:50:00 AM
WPL Pier 31 27 38 5 None 9 mph 16 mph W 36 - 36 1/18/2018 10:55:00 AM
Location Air RH Dwp Precip Type Wind Speed Wind Gust Direction Pavement Temperature Date/Time